sensor_id;sensor_type;location;lat;lon;timestamp;pressure;altitude;pressure_sealevel;temperature;humidity
7668;BME280;3876;42.204;24.686;2023-04-15T00:00:09;98683.06;;;13.43;100.00
7668;BME280;3876;42.204;24.686;2023-04-15T00:02:36;98677.91;;;13.43;100.00
7668;BME280;3876;42.204;24.686;2023-04-15T00:05:04;98677.75;;;13.46;100.00
7668;BME280;3876;42.204;24.686;2023-04-15T00:07:32;98670.78;;;13.48;100.00
7668;BME280;3876;42.204;24.686;2023-04-15T00:10:00;98666.78;;;13.43;100.00
7668;BME280;3876;42.204;24.686;2023-04-15T00:12:29;98658.72;;;13.33;100.00
7668;BME280;3876;42.204;24.686;2023-04-15T00:14:56;98653.63;;;13.16;100.00
7668;BME280;3876;42.204;24.686;2023-04-15T00:17:23;98659.03;;;13.11;100.00
7668;BME280;3876;42.204;24.686;2023-04-15T00:19:50;98663.19;;;13.14;100.00
7668;BME280;3876;42.204;24.686;2023-04-15T00:22:16;98670.06;;;13.13;100.00
7668;BME280;3876;42.204;24.686;2023-04-15T00:24:45;98689.19;;;13.08;100.00
7668;BME280;3876;42.204;24.686;2023-04-15T00:27:11;98692.69;;;12.90;100.00
7668;BME280;3876;42.204;24.686;2023-04-15T00:29:38;98685.75;;;12.92;100.00
7668;BME280;3876;42.204;24.686;2023-04-15T00:32:06;98681.28;;;12.95;100.00
7668;BME280;3876;42.204;24.686;2023-04-15T00:34:33;98680.59;;;12.92;100.00
7668;BME280;3876;42.204;24.686;2023-04-15T00:37:00;98676.41;;;12.89;100.00
7668;BME280;3876;42.204;24.686;2023-04-15T00:39:27;98666.03;;;12.75;100.00
7668;BME280;3876;42.204;24.686;2023-04-15T00:41:55;98660.09;;;12.73;100.00
7668;BME280;3876;42.204;24.686;2023-04-15T00:44:23;98660.19;;;12.72;100.00
7668;BME280;3876;42.204;24.686;2023-04-15T00:46:50;98669.50;;;12.74;100.00
7668;BME280;3876;42.204;24.686;2023-04-15T00:49:17;98663.00;;;12.67;100.00
7668;BME280;3876;42.204;24.686;2023-04-15T00:51:44;98668.13;;;12.67;100.00
7668;BME280;3876;42.204;24.686;2023-04-15T00:54:11;98668.91;;;12.69;100.00
7668;BME280;3876;42.204;24.686;2023-04-15T00:56:38;98661.25;;;12.68;100.00
7668;BME280;3876;42.204;24.686;2023-04-15T00:59:07;98661.25;;;12.68;100.00
7668;BME280;3876;42.204;24.686;2023-04-15T01:01:34;98663.75;;;12.69;100.00
7668;BME280;3876;42.204;24.686;2023-04-15T01:04:01;98673.22;;;12.69;100.00
7668;BME280;3876;42.204;24.686;2023-04-15T01:06:29;98675.31;;;12.60;100.00
7668;BME280;3876;42.204;24.686;2023-04-15T01:08:57;98669.44;;;12.41;100.00
7668;BME280;3876;42.204;24.686;2023-04-15T01:11:24;98672.38;;;12.34;100.00
7668;BME280;3876;42.204;24.686;2023-04-15T01:13:51;98670.56;;;12.36;100.00
7668;BME280;3876;42.204;24.686;2023-04-15T01:16:20;98661.13;;;12.36;100.00
7668;BME280;3876;42.204;24.686;2023-04-15T01:18:48;98653.16;;;12.41;100.00
7668;BME280;3876;42.204;24.686;2023-04-15T01:21:15;98666.09;;;12.39;100.00
7668;BME280;3876;42.204;24.686;2023-04-15T01:23:43;98680.31;;;12.29;100.00
7668;BME280;3876;42.204;24.686;2023-04-15T01:26:13;98683.72;;;12.30;100.00
7668;BME280;3876;42.204;24.686;2023-04-15T01:28:39;98688.78;;;12.31;100.00
7668;BME280;3876;42.204;24.686;2023-04-15T01:31:08;98665.50;;;12.17;99.90
7668;BME280;3876;42.204;24.686;2023-04-15T01:33:35;98682.34;;;12.23;99.66
7668;BME280;3876;42.204;24.686;2023-04-15T01:36:03;98671.63;;;12.15;98.81
7668;BME280;3876;42.204;24.686;2023-04-15T01:38:30;98680.22;;;12.14;98.66
7668;BME280;3876;42.204;24.686;2023-04-15T01:40:57;98668.41;;;12.09;98.96
7668;BME280;3876;42.204;24.686;2023-04-15T01:43:26;98664.28;;;12.07;98.71
7668;BME280;3876;42.204;24.686;2023-04-15T01:45:53;98674.53;;;12.07;98.95
7668;BME280;3876;42.204;24.686;2023-04-15T01:48:20;98686.75;;;12.02;98.50
7668;BME280;3876;42.204;24.686;2023-04-15T01:50:47;98693.94;;;11.95;98.25
7668;BME280;3876;42.204;24.686;2023-04-15T01:53:14;98696.50;;;11.77;98.77
7668;BME280;3876;42.204;24.686;2023-04-15T01:55:41;98706.75;;;11.58;100.00
7668;BME280;3876;42.204;24.686;2023-04-15T01:58:08;98716.00;;;11.43;100.00
7668;BME280;3876;42.204;24.686;2023-04-15T02:00:36;98724.03;;;11.36;100.00
7668;BME280;3876;42.204;24.686;2023-04-15T02:03:03;98724.22;;;11.31;100.00
7668;BME280;3876;42.204;24.686;2023-04-15T02:05:30;98721.03;;;11.26;100.00
7668;BME280;3876;42.204;24.686;2023-04-15T02:07:58;98725.66;;;11.18;100.00
7668;BME280;3876;42.204;24.686;2023-04-15T02:10:24;98729.06;;;11.19;100.00
7668;BME280;3876;42.204;24.686;2023-04-15T02:12:51;98734.25;;;11.17;100.00
7668;BME280;3876;42.204;24.686;2023-04-15T02:15:18;98707.38;;;11.05;100.00
7668;BME280;3876;42.204;24.686;2023-04-15T02:17:47;98715.47;;;11.17;100.00
7668;BME280;3876;42.204;24.686;2023-04-15T02:20:15;98696.25;;;11.06;100.00
7668;BME280;3876;42.204;24.686;2023-04-15T02:22:42;98710.00;;;11.24;100.00
7668;BME280;3876;42.204;24.686;2023-04-15T02:25:09;98706.75;;;11.21;100.00
7668;BME280;3876;42.204;24.686;2023-04-15T02:27:36;98704.88;;;11.24;100.00
7668;BME280;3876;42.204;24.686;2023-04-15T02:30:03;98702.41;;;11.21;100.00
7668;BME280;3876;42.204;24.686;2023-04-15T02:32:31;98707.69;;;11.18;100.00
7668;BME280;3876;42.204;24.686;2023-04-15T02:35:02;98706.81;;;11.19;100.00
7668;BME280;3876;42.204;24.686;2023-04-15T02:37:30;98713.47;;;11.23;100.00
7668;BME280;3876;42.204;24.686;2023-04-15T02:40:00;98712.59;;;11.24;100.00
7668;BME280;3876;42.204;24.686;2023-04-15T02:42:26;98722.56;;;11.30;100.00
7668;BME280;3876;42.204;24.686;2023-04-15T02:44:54;98727.56;;;11.33;100.00
7668;BME280;3876;42.204;24.686;2023-04-15T02:47:22;98741.28;;;11.32;100.00
7668;BME280;3876;42.204;24.686;2023-04-15T02:49:49;98748.84;;;11.35;99.80
7668;BME280;3876;42.204;24.686;2023-04-15T02:52:17;98742.19;;;11.31;99.81
7668;BME280;3876;42.204;24.686;2023-04-15T02:54:44;98742.97;;;11.33;99.11
7668;BME280;3876;42.204;24.686;2023-04-15T02:57:10;98742.97;;;11.33;98.70
7668;BME280;3876;42.204;24.686;2023-04-15T02:59:37;98736.09;;;11.34;98.63
7668;BME280;3876;42.204;24.686;2023-04-15T03:02:04;98739.47;;;11.34;98.02
7668;BME280;3876;42.204;24.686;2023-04-15T03:04:32;98736.16;;;11.32;98.11
7668;BME280;3876;42.204;24.686;2023-04-15T03:07:00;98736.16;;;11.32;98.08
7668;BME280;3876;42.204;24.686;2023-04-15T03:09:28;98733.44;;;11.35;97.70
7668;BME280;3876;42.204;24.686;2023-04-15T03:11:55;98725.97;;;11.31;97.43
7668;BME280;3876;42.204;24.686;2023-04-15T03:14:21;98723.09;;;11.18;98.41
7668;BME280;3876;42.204;24.686;2023-04-15T03:16:48;98717.72;;;11.04;99.04
7668;BME280;3876;42.204;24.686;2023-04-15T03:19:16;98720.38;;;10.82;100.00
7668;BME280;3876;42.204;24.686;2023-04-15T03:21:43;98723.38;;;10.72;100.00
7668;BME280;3876;42.204;24.686;2023-04-15T03:24:10;98730.53;;;10.64;100.00
7668;BME280;3876;42.204;24.686;2023-04-15T03:26:38;98734.63;;;10.47;100.00
7668;BME280;3876;42.204;24.686;2023-04-15T03:29:05;98744.47;;;10.36;100.00
7668;BME280;3876;42.204;24.686;2023-04-15T03:31:31;98750.31;;;10.18;100.00
7668;BME280;3876;42.204;24.686;2023-04-15T03:33:58;98763.63;;;10.05;100.00
7668;BME280;3876;42.204;24.686;2023-04-15T03:36:25;98768.78;;;10.03;100.00
7668;BME280;3876;42.204;24.686;2023-04-15T03:38:52;98780.97;;;9.98;100.00
7668;BME280;3876;42.204;24.686;2023-04-15T03:41:20;98776.63;;;9.98;100.00
7668;BME280;3876;42.204;24.686;2023-04-15T03:43:48;98762.84;;;10.02;100.00
7668;BME280;3876;42.204;24.686;2023-04-15T03:46:16;98777.91;;;10.10;100.00
7668;BME280;3876;42.204;24.686;2023-04-15T03:48:43;98794.81;;;10.16;100.00
7668;BME280;3876;42.204;24.686;2023-04-15T03:51:10;98792.50;;;10.08;100.00
7668;BME280;3876;42.204;24.686;2023-04-15T03:53:36;98798.69;;;10.02;100.00
7668;BME280;3876;42.204;24.686;2023-04-15T03:56:04;98809.72;;;9.81;100.00
7668;BME280;3876;42.204;24.686;2023-04-15T03:58:31;98803.31;;;9.70;100.00
7668;BME280;3876;42.204;24.686;2023-04-15T04:00:59;98801.78;;;9.66;100.00
7668;BME280;3876;42.204;24.686;2023-04-15T04:03:25;98798.25;;;9.68;100.00
7668;BME280;3876;42.204;24.686;2023-04-15T04:05:52;98793.75;;;9.75;100.00
7668;BME280;3876;42.204;24.686;2023-04-15T04:08:19;98804.72;;;9.78;100.00
7668;BME280;3876;42.204;24.686;2023-04-15T04:10:46;98813.06;;;9.83;100.00
7668;BME280;3876;42.204;24.686;2023-04-15T04:13:13;98815.69;;;9.82;100.00
7668;BME280;3876;42.204;24.686;2023-04-15T04:15:39;98816.50;;;9.82;100.00
7668;BME280;3876;42.204;24.686;2023-04-15T04:18:08;98807.78;;;9.88;100.00
7668;BME280;3876;42.204;24.686;2023-04-15T04:20:34;98805.16;;;9.89;100.00
7668;BME280;3876;42.204;24.686;2023-04-15T04:23:01;98812.59;;;9.95;100.00
7668;BME280;3876;42.204;24.686;2023-04-15T04:25:28;98810.00;;;9.97;100.00
7668;BME280;3876;42.204;24.686;2023-04-15T04:27:55;98813.22;;;10.02;100.00
7668;BME280;3876;42.204;24.686;2023-04-15T04:30:21;98806.84;;;9.90;100.00
7668;BME280;3876;42.204;24.686;2023-04-15T04:32:48;98816.00;;;9.73;100.00
7668;BME280;3876;42.204;24.686;2023-04-15T04:35:17;98808.28;;;9.74;100.00
7668;BME280;3876;42.204;24.686;2023-04-15T04:37:43;98821.72;;;9.79;100.00
7668;BME280;3876;42.204;24.686;2023-04-15T04:40:11;98823.81;;;9.93;100.00
7668;BME280;3876;42.204;24.686;2023-04-15T04:42:39;98831.69;;;10.10;100.00
7668;BME280;3876;42.204;24.686;2023-04-15T04:45:06;98842.22;;;10.26;100.00
7668;BME280;3876;42.204;24.686;2023-04-15T04:47:34;98835.47;;;10.46;100.00
7668;BME280;3876;42.204;24.686;2023-04-15T04:50:01;98835.22;;;10.74;100.00
7668;BME280;3876;42.204;24.686;2023-04-15T04:52:29;98839.13;;;11.04;98.62
7668;BME280;3876;42.204;24.686;2023-04-15T04:54:56;98835.59;;;11.27;97.65
7668;BME280;3876;42.204;24.686;2023-04-15T04:57:22;98838.56;;;11.57;95.82
7668;BME280;3876;42.204;24.686;2023-04-15T04:59:49;98839.91;;;11.86;95.35
7668;BME280;3876;42.204;24.686;2023-04-15T05:02:16;98847.13;;;12.15;92.41
7668;BME280;3876;42.204;24.686;2023-04-15T05:04:43;98848.06;;;12.33;90.50
7668;BME280;3876;42.204;24.686;2023-04-15T05:07:10;98839.88;;;12.60;91.00
7668;BME280;3876;42.204;24.686;2023-04-15T05:09:38;98844.00;;;12.82;87.99
7668;BME280;3876;42.204;24.686;2023-04-15T05:12:05;98837.38;;;12.95;87.25
7668;BME280;3876;42.204;24.686;2023-04-15T05:14:33;98842.13;;;13.02;86.55
7668;BME280;3876;42.204;24.686;2023-04-15T05:17:00;98854.06;;;13.22;87.35
7668;BME280;3876;42.204;24.686;2023-04-15T05:19:27;98854.13;;;13.38;86.02
7668;BME280;3876;42.204;24.686;2023-04-15T05:21:53;98852.22;;;13.58;86.58
7668;BME280;3876;42.204;24.686;2023-04-15T05:24:20;98859.16;;;13.74;85.99
7668;BME280;3876;42.204;24.686;2023-04-15T05:26:48;98860.13;;;14.04;84.51
7668;BME280;3876;42.204;24.686;2023-04-15T05:29:15;98863.84;;;14.31;83.85
7668;BME280;3876;42.204;24.686;2023-04-15T05:31:42;98856.03;;;14.48;82.53
7668;BME280;3876;42.204;24.686;2023-04-15T05:34:09;98856.00;;;14.64;81.54
7668;BME280;3876;42.204;24.686;2023-04-15T05:36:37;98867.47;;;14.90;83.31
7668;BME280;3876;42.204;24.686;2023-04-15T05:39:03;98861.84;;;15.13;80.71
7668;BME280;3876;42.204;24.686;2023-04-15T05:41:30;98871.50;;;15.39;80.31
7668;BME280;3876;42.204;24.686;2023-04-15T05:43:58;98881.97;;;15.52;79.79
7668;BME280;3876;42.204;24.686;2023-04-15T05:46:25;98858.84;;;15.50;79.27
7668;BME280;3876;42.204;24.686;2023-04-15T05:48:52;98881.72;;;15.56;80.90
7668;BME280;3876;42.204;24.686;2023-04-15T05:51:19;98895.22;;;15.75;81.48
7668;BME280;3876;42.204;24.686;2023-04-15T05:53:46;98899.09;;;15.97;81.31
7668;BME280;3876;42.204;24.686;2023-04-15T05:56:12;98897.06;;;16.30;81.78
7668;BME280;3876;42.204;24.686;2023-04-15T05:58:39;98900.47;;;16.59;77.67
7668;BME280;3876;42.204;24.686;2023-04-15T06:01:07;98896.44;;;16.82;75.46
7668;BME280;3876;42.204;24.686;2023-04-15T06:03:35;98902.81;;;17.03;74.89
7668;BME280;3876;42.204;24.686;2023-04-15T06:06:01;98900.19;;;17.17;74.88
7668;BME280;3876;42.204;24.686;2023-04-15T06:08:28;98909.47;;;17.46;73.71
7668;BME280;3876;42.204;24.686;2023-04-15T06:10:55;98915.63;;;17.58;72.43
7668;BME280;3876;42.204;24.686;2023-04-15T06:13:23;98911.91;;;17.74;74.68
7668;BME280;3876;42.204;24.686;2023-04-15T06:15:50;98915.47;;;17.99;73.28
7668;BME280;3876;42.204;24.686;2023-04-15T06:18:19;98922.09;;;18.15;71.91
7668;BME280;3876;42.204;24.686;2023-04-15T06:20:45;98925.63;;;18.14;71.31
7668;BME280;3876;42.204;24.686;2023-04-15T06:23:12;98922.09;;;18.28;70.92
7668;BME280;3876;42.204;24.686;2023-04-15T06:25:39;98930.47;;;18.44;72.50
7668;BME280;3876;42.204;24.686;2023-04-15T06:28:06;98927.47;;;18.50;71.66
7668;BME280;3876;42.204;24.686;2023-04-15T06:30:33;98925.38;;;18.55;72.85
7668;BME280;3876;42.204;24.686;2023-04-15T06:33:01;98926.56;;;18.75;74.28
7668;BME280;3876;42.204;24.686;2023-04-15T06:35:31;98932.00;;;18.96;73.54
7668;BME280;3876;42.204;24.686;2023-04-15T06:37:58;98931.50;;;18.91;71.37
7668;BME280;3876;42.204;24.686;2023-04-15T06:40:24;98933.00;;;19.06;73.96
7668;BME280;3876;42.204;24.686;2023-04-15T06:42:51;98942.88;;;19.01;72.62
7668;BME280;3876;42.204;24.686;2023-04-15T06:45:18;98935.16;;;19.12;72.24
7668;BME280;3876;42.204;24.686;2023-04-15T06:47:45;98924.56;;;19.15;71.39
7668;BME280;3876;42.204;24.686;2023-04-15T06:50:11;98928.25;;;19.23;70.63
7668;BME280;3876;42.204;24.686;2023-04-15T06:52:40;98932.16;;;19.29;71.11
7668;BME280;3876;42.204;24.686;2023-04-15T06:55:07;98923.06;;;19.47;71.29
7668;BME280;3876;42.204;24.686;2023-04-15T06:57:34;98933.97;;;19.74;71.57
7668;BME280;3876;42.204;24.686;2023-04-15T07:00:01;98941.13;;;19.95;70.38
7668;BME280;3876;42.204;24.686;2023-04-15T07:02:30;98947.75;;;19.99;68.62
7668;BME280;3876;42.204;24.686;2023-04-15T07:04:56;98952.25;;;19.97;68.43
7668;BME280;3876;42.204;24.686;2023-04-15T07:07:23;98950.38;;;20.21;68.43
7668;BME280;3876;42.204;24.686;2023-04-15T07:09:52;98949.91;;;20.16;66.06
7668;BME280;3876;42.204;24.686;2023-04-15T07:12:19;98947.53;;;20.24;66.00
7668;BME280;3876;42.204;24.686;2023-04-15T07:14:45;98948.94;;;19.95;68.50
7668;BME280;3876;42.204;24.686;2023-04-15T07:17:12;98946.09;;;19.98;66.37
7668;BME280;3876;42.204;24.686;2023-04-15T07:19:39;98950.59;;;20.07;68.09
7668;BME280;3876;42.204;24.686;2023-04-15T07:22:06;98957.13;;;20.23;69.65
7668;BME280;3876;42.204;24.686;2023-04-15T07:24:33;98965.22;;;20.31;66.65
7668;BME280;3876;42.204;24.686;2023-04-15T07:27:01;98949.22;;;20.47;67.61
7668;BME280;3876;42.204;24.686;2023-04-15T07:29:28;98960.22;;;20.73;68.71
7668;BME280;3876;42.204;24.686;2023-04-15T07:31:55;98973.84;;;20.65;65.35
7668;BME280;3876;42.204;24.686;2023-04-15T07:34:22;98971.00;;;20.57;65.91
7668;BME280;3876;42.204;24.686;2023-04-15T07:36:49;98961.28;;;20.70;65.44
7668;BME280;3876;42.204;24.686;2023-04-15T07:39:16;98964.63;;;20.28;65.88
7668;BME280;3876;42.204;24.686;2023-04-15T07:41:43;98967.69;;;20.55;65.97
7668;BME280;3876;42.204;24.686;2023-04-15T07:44:12;98945.44;;;20.51;66.30
7668;BME280;3876;42.204;24.686;2023-04-15T07:46:39;98949.66;;;20.85;63.12
7668;BME280;3876;42.204;24.686;2023-04-15T07:49:06;98957.03;;;20.80;63.43
7668;BME280;3876;42.204;24.686;2023-04-15T07:51:33;98951.94;;;20.46;65.54
7668;BME280;3876;42.204;24.686;2023-04-15T07:53:59;98957.47;;;20.74;64.68
7668;BME280;3876;42.204;24.686;2023-04-15T07:56:27;98959.13;;;20.86;66.00
7668;BME280;3876;42.204;24.686;2023-04-15T07:58:54;98954.09;;;21.17;63.98
7668;BME280;3876;42.204;24.686;2023-04-15T08:01:22;98955.31;;;21.44;63.51
7668;BME280;3876;42.204;24.686;2023-04-15T08:03:49;98964.56;;;21.69;66.68
7668;BME280;3876;42.204;24.686;2023-04-15T08:06:16;98952.16;;;21.82;66.72
7668;BME280;3876;42.204;24.686;2023-04-15T08:08:43;98948.13;;;21.78;61.95
7668;BME280;3876;42.204;24.686;2023-04-15T08:11:10;98952.16;;;21.82;61.71
7668;BME280;3876;42.204;24.686;2023-04-15T08:13:37;98912.88;;;21.63;62.59
7668;BME280;3876;42.204;24.686;2023-04-15T08:16:16;98950.94;;;22.07;62.61
7668;BME280;3876;42.204;24.686;2023-04-15T08:18:45;98949.47;;;22.14;61.36
7668;BME280;3876;42.204;24.686;2023-04-15T08:21:12;98948.03;;;22.31;58.72
7668;BME280;3876;42.204;24.686;2023-04-15T08:23:39;98949.50;;;21.93;59.34
7668;BME280;3876;42.204;24.686;2023-04-15T08:26:07;98942.28;;;21.86;60.25
7668;BME280;3876;42.204;24.686;2023-04-15T08:28:34;98945.59;;;21.67;60.90
7668;BME280;3876;42.204;24.686;2023-04-15T08:31:01;98945.09;;;21.21;62.58
7668;BME280;3876;42.204;24.686;2023-04-15T08:33:28;98943.66;;;21.17;62.59
7668;BME280;3876;42.204;24.686;2023-04-15T08:35:56;98941.53;;;21.22;63.49
7668;BME280;3876;42.204;24.686;2023-04-15T08:38:23;98939.16;;;21.51;61.08
7668;BME280;3876;42.204;24.686;2023-04-15T08:40:49;98939.22;;;21.60;60.70
7668;BME280;3876;42.204;24.686;2023-04-15T08:43:20;98929.41;;;21.32;60.44
7668;BME280;3876;42.204;24.686;2023-04-15T08:45:49;98919.06;;;21.62;59.97
7668;BME280;3876;42.204;24.686;2023-04-15T08:48:17;98943.75;;;21.58;58.35
7668;BME280;3876;42.204;24.686;2023-04-15T08:50:45;98947.66;;;21.32;59.74
7668;BME280;3876;42.204;24.686;2023-04-15T08:53:14;98942.44;;;21.32;60.06
7668;BME280;3876;42.204;24.686;2023-04-15T08:55:43;98949.13;;;21.14;60.36
7668;BME280;3876;42.204;24.686;2023-04-15T08:58:11;98938.72;;;21.14;60.53
7668;BME280;3876;42.204;24.686;2023-04-15T09:00:38;98917.63;;;21.06;59.87
7668;BME280;3876;42.204;24.686;2023-04-15T09:03:06;98942.53;;;21.62;60.80
7668;BME280;3876;42.204;24.686;2023-04-15T09:05:34;98949.84;;;22.00;57.66
7668;BME280;3876;42.204;24.686;2023-04-15T09:08:03;98937.91;;;21.86;54.50
7668;BME280;3876;42.204;24.686;2023-04-15T09:10:32;98939.44;;;22.10;54.68
7668;BME280;3876;42.204;24.686;2023-04-15T09:12:59;98934.56;;;22.26;52.34
7668;BME280;3876;42.204;24.686;2023-04-15T09:15:27;98938.47;;;22.41;51.63
7668;BME280;3876;42.204;24.686;2023-04-15T09:17:55;98940.38;;;22.69;53.66
7668;BME280;3876;42.204;24.686;2023-04-15T09:20:22;98931.31;;;22.73;53.06
7668;BME280;3876;42.204;24.686;2023-04-15T09:22:49;98925.41;;;22.41;51.97
7668;BME280;3876;42.204;24.686;2023-04-15T09:25:26;98922.88;;;22.30;53.17
7668;BME280;3876;42.204;24.686;2023-04-15T09:27:56;98925.56;;;22.49;52.18
7668;BME280;3876;42.204;24.686;2023-04-15T09:30:23;98927.66;;;22.55;51.25
7668;BME280;3876;42.204;24.686;2023-04-15T09:32:52;98921.97;;;22.40;51.55
7668;BME280;3876;42.204;24.686;2023-04-15T09:35:19;98922.19;;;22.28;50.60
7668;BME280;3876;42.204;24.686;2023-04-15T09:37:46;98924.47;;;22.12;50.70
7668;BME280;3876;42.204;24.686;2023-04-15T09:40:13;98910.97;;;21.86;53.17
7668;BME280;3876;42.204;24.686;2023-04-15T09:42:56;98906.72;;;22.06;52.98
7668;BME280;3876;42.204;24.686;2023-04-15T09:45:24;98918.47;;;21.79;53.91
7668;BME280;3876;42.204;24.686;2023-04-15T09:47:51;98908.34;;;21.24;54.81
7668;BME280;3876;42.204;24.686;2023-04-15T09:50:18;98912.25;;;20.75;56.85
7668;BME280;3876;42.204;24.686;2023-04-15T09:52:45;98903.31;;;20.57;58.02
7668;BME280;3876;42.204;24.686;2023-04-15T09:55:14;98901.16;;;20.62;58.44
7668;BME280;3876;42.204;24.686;2023-04-15T09:57:41;98900.91;;;20.65;56.85
7668;BME280;3876;42.204;24.686;2023-04-15T10:00:10;98875.50;;;20.47;55.66
7668;BME280;3876;42.204;24.686;2023-04-15T10:02:38;98902.75;;;20.97;54.27
7668;BME280;3876;42.204;24.686;2023-04-15T10:05:06;98902.03;;;20.94;50.79
7668;BME280;3876;42.204;24.686;2023-04-15T10:07:37;98898.22;;;21.10;50.65
7668;BME280;3876;42.204;24.686;2023-04-15T10:10:06;98902.47;;;21.11;49.76
7668;BME280;3876;42.204;24.686;2023-04-15T10:12:36;98903.13;;;21.24;48.94
7668;BME280;3876;42.204;24.686;2023-04-15T10:15:04;98896.75;;;21.17;48.49
7668;BME280;3876;42.204;24.686;2023-04-15T10:17:33;98893.47;;;21.15;47.50
7668;BME280;3876;42.204;24.686;2023-04-15T10:20:03;98886.06;;;21.52;49.40
7668;BME280;3876;42.204;24.686;2023-04-15T10:22:31;98898.53;;;21.89;47.40
7668;BME280;3876;42.204;24.686;2023-04-15T10:24:58;98884.25;;;22.24;46.03
7668;BME280;3876;42.204;24.686;2023-04-15T10:27:26;98873.94;;;22.22;42.80
7668;BME280;3876;42.204;24.686;2023-04-15T10:29:53;98872.72;;;22.36;40.01
7668;BME280;3876;42.204;24.686;2023-04-15T10:32:21;98858.69;;;22.27;38.82
7668;BME280;3876;42.204;24.686;2023-04-15T10:34:51;98872.50;;;22.39;42.43
7668;BME280;3876;42.204;24.686;2023-04-15T10:37:33;98863.63;;;22.70;47.53
7668;BME280;3876;42.204;24.686;2023-04-15T10:39:59;98860.63;;;22.84;41.54
7668;BME280;3876;42.204;24.686;2023-04-15T10:42:33;98861.31;;;22.77;44.13
7668;BME280;3876;42.204;24.686;2023-04-15T10:45:00;98853.00;;;22.62;45.63
7668;BME280;3876;42.204;24.686;2023-04-15T10:47:26;98858.97;;;22.24;44.90
7668;BME280;3876;42.204;24.686;2023-04-15T10:49:59;98852.97;;;22.43;44.42
7668;BME280;3876;42.204;24.686;2023-04-15T10:52:27;98849.69;;;22.60;44.82
7668;BME280;3876;42.204;24.686;2023-04-15T10:55:01;98846.97;;;22.62;47.27
7668;BME280;3876;42.204;24.686;2023-04-15T10:57:34;98849.22;;;22.36;46.54
7668;BME280;3876;42.204;24.686;2023-04-15T11:00:09;98844.59;;;22.00;44.60
7668;BME280;3876;42.204;24.686;2023-04-15T11:02:41;98849.09;;;21.97;45.79
7668;BME280;3876;42.204;24.686;2023-04-15T11:05:09;98839.25;;;21.80;46.28
7668;BME280;3876;42.204;24.686;2023-04-15T11:07:46;98847.84;;;21.71;46.27
7668;BME280;3876;42.204;24.686;2023-04-15T11:13:26;98836.34;;;22.04;44.91
7668;BME280;3876;42.204;24.686;2023-04-15T11:15:58;98837.16;;;21.95;42.34
7668;BME280;3876;42.204;24.686;2023-04-15T11:18:27;98842.34;;;21.95;41.80
7668;BME280;3876;42.204;24.686;2023-04-15T11:20:58;98840.19;;;21.79;44.08
7668;BME280;3876;42.204;24.686;2023-04-15T11:23:30;98838.03;;;21.84;42.27
7668;BME280;3876;42.204;24.686;2023-04-15T11:25:58;98840.16;;;21.90;44.81
7668;BME280;3876;42.204;24.686;2023-04-15T11:28:26;98830.81;;;21.97;46.15
7668;BME280;3876;42.204;24.686;2023-04-15T11:30:54;98822.09;;;22.08;47.15
7668;BME280;3876;42.204;24.686;2023-04-15T11:33:21;98824.91;;;22.26;46.44
7668;BME280;3876;42.204;24.686;2023-04-15T11:35:48;98809.81;;;22.39;44.39
7668;BME280;3876;42.204;24.686;2023-04-15T11:38:17;98820.50;;;22.36;45.40
7668;BME280;3876;42.204;24.686;2023-04-15T11:40:44;98818.94;;;21.84;45.56
7668;BME280;3876;42.204;24.686;2023-04-15T11:43:13;98813.84;;;21.82;48.42
7668;BME280;3876;42.204;24.686;2023-04-15T11:45:51;98814.78;;;22.02;49.76
7668;BME280;3876;42.204;24.686;2023-04-15T11:48:20;98815.06;;;21.99;46.95
7668;BME280;3876;42.204;24.686;2023-04-15T11:50:52;98806.13;;;22.02;47.10
7668;BME280;3876;42.204;24.686;2023-04-15T11:53:21;98807.78;;;22.03;46.74
7668;BME280;3876;42.204;24.686;2023-04-15T11:55:49;98802.72;;;22.11;46.33
7668;BME280;3876;42.204;24.686;2023-04-15T11:58:17;98787.50;;;22.16;46.96
7668;BME280;3876;42.204;24.686;2023-04-15T12:00:46;98790.78;;;22.18;45.96
7668;BME280;3876;42.204;24.686;2023-04-15T12:03:18;98784.56;;;22.00;45.00
7668;BME280;3876;42.204;24.686;2023-04-15T12:06:08;98777.44;;;22.21;46.93
7668;BME280;3876;42.204;24.686;2023-04-15T12:08:57;98785.59;;;22.37;44.76
7668;BME280;3876;42.204;24.686;2023-04-15T12:11:33;98781.38;;;22.45;45.17
7668;BME280;3876;42.204;24.686;2023-04-15T12:14:04;98784.22;;;22.52;46.23
7668;BME280;3876;42.204;24.686;2023-04-15T12:16:33;98785.06;;;22.62;46.19
7668;BME280;3876;42.204;24.686;2023-04-15T12:19:02;98777.94;;;22.64;45.26
7668;BME280;3876;42.204;24.686;2023-04-15T12:21:33;98782.44;;;22.62;45.71
7668;BME280;3876;42.204;24.686;2023-04-15T12:24:04;98763.31;;;22.33;46.29
7668;BME280;3876;42.204;24.686;2023-04-15T12:26:34;98779.69;;;22.35;44.54
7668;BME280;3876;42.204;24.686;2023-04-15T12:29:03;98780.63;;;22.24;45.19
7668;BME280;3876;42.204;24.686;2023-04-15T12:31:30;98776.25;;;22.34;45.18
7668;BME280;3876;42.204;24.686;2023-04-15T12:33:58;98748.47;;;22.24;44.10
7668;BME280;3876;42.204;24.686;2023-04-15T12:36:25;98781.09;;;22.39;44.07
7668;BME280;3876;42.204;24.686;2023-04-15T12:38:52;98779.53;;;22.27;43.79
7668;BME280;3876;42.204;24.686;2023-04-15T12:41:20;98791.22;;;22.23;44.38
7668;BME280;3876;42.204;24.686;2023-04-15T12:43:48;98788.59;;;22.23;45.72
7668;BME280;3876;42.204;24.686;2023-04-15T12:46:15;98782.84;;;22.29;45.06
7668;BME280;3876;42.204;24.686;2023-04-15T12:48:43;98782.84;;;22.29;45.32
7668;BME280;3876;42.204;24.686;2023-04-15T12:51:10;98790.94;;;22.26;46.11
7668;BME280;3876;42.204;24.686;2023-04-15T12:53:37;98785.53;;;22.08;45.77
7668;BME280;3876;42.204;24.686;2023-04-15T12:56:04;98790.72;;;21.98;46.55
7668;BME280;3876;42.204;24.686;2023-04-15T12:58:32;98786.09;;;22.12;46.91
7668;BME280;3876;42.204;24.686;2023-04-15T13:00:59;98793.75;;;22.04;46.23
7668;BME280;3876;42.204;24.686;2023-04-15T13:03:26;98794.78;;;22.22;46.52
7668;BME280;3876;42.204;24.686;2023-04-15T13:05:52;98795.72;;;22.21;46.66
7668;BME280;3876;42.204;24.686;2023-04-15T13:08:19;98789.06;;;21.97;48.04
7668;BME280;3876;42.204;24.686;2023-04-15T13:10:46;98790.19;;;22.05;49.57
7668;BME280;3876;42.204;24.686;2023-04-15T13:13:14;98775.38;;;22.15;49.80